Time;durP1;ratioP1;P1;durP2;ratioP2;P2;SDS_P1;SDS_P2;PMS_P1;PMS_P2;Temp;Humidity;BMP_temperature;BMP_pressure;BME280_temperature;BME280_humidity;BME280_pressure;Samples;Min_cycle;Max_cycle;Signal;HPM_P1;HPM_P2
2022/03/07 00:00:25;;;;;;;;;;;4.70;99.90;;;;;;5040483;28;19976;-89
2022/03/07 00:02:51;;;;;;;;;;;4.60;99.90;;;;;;5041999;28;19905;-89
2022/03/07 00:05:17;;;;;;;;;;;4.50;99.90;;;;;;5073528;28;19913;-89
2022/03/07 00:07:42;;;;;;;;;;;4.50;99.90;;;;;;5041970;28;20114;-89
2022/03/07 00:10:08;;;;;;;;;;;4.50;99.90;;;;;;5041720;28;19913;-89
2022/03/07 00:12:33;;;;;;;;;;;4.50;99.90;;;;;;5072762;28;19945;-89
2022/03/07 00:14:59;;;;;;;;;;;4.50;99.90;;;;;;5041398;28;19916;-89
2022/03/07 00:17:24;;;;;;;;;;;4.50;99.90;;;;;;5042102;28;19912;-89
2022/03/07 00:19:50;;;;;;;;;;;4.50;99.90;;;;;;5074138;28;19905;-89
2022/03/07 00:22:15;;;;;;;;;;;4.50;99.90;;;;;;5042099;28;19937;-89
2022/03/07 00:24:41;;;;;;;;;;;4.50;99.90;;;;;;5041876;28;19909;-90
2022/03/07 00:27:06;;;;;;;;;;;4.50;99.90;;;;;;5040714;28;19989;-89
2022/03/07 00:29:32;;;;;;;;;;;4.50;99.90;;;;;;5040199;28;20189;-89
2022/03/07 00:31:58;;;;;;;;;;;4.50;99.90;;;;;;5040152;28;20129;-89
2022/03/07 00:34:23;;;;;;;;;;;4.50;99.90;;;;;;5041701;28;19967;-89
2022/03/07 00:36:49;;;;;;;;;;;4.40;99.90;;;;;;5042192;28;19912;-89
2022/03/07 00:39:14;;;;;;;;;;;4.40;99.90;;;;;;5041671;28;19913;-88
2022/03/07 00:41:40;;;;;;;;;;;4.40;99.90;;;;;;5040474;28;19905;-89
2022/03/07 00:44:05;;;;;;;;;;;4.40;99.90;;;;;;5041306;28;20146;-89
2022/03/07 00:46:31;;;;;;;;;;;4.40;99.90;;;;;;5040956;28;20098;-90
2022/03/07 00:48:56;;;;;;;;;;;4.40;99.90;;;;;;5041674;28;20329;-90
2022/03/07 00:51:25;;;;;;;;;;;4.40;99.90;;;;;;5039668;28;20133;-89
2022/03/07 00:53:51;;;;;;;;;;;4.40;99.90;;;;;;5073597;28;19984;-89
2022/03/07 00:56:16;;;;;;;;;;;4.40;99.90;;;;;;5041724;28;19928;-89
2022/03/07 00:58:42;;;;;;;;;;;4.30;99.90;;;;;;5040959;28;19909;-90
2022/03/07 01:01:07;;;;;;;;;;;4.30;99.90;;;;;;5040177;28;19953;-89
2022/03/07 01:03:33;;;;;;;;;;;4.20;99.90;;;;;;5041347;28;20122;-89
2022/03/07 01:05:58;;;;;;;;;;;4.20;99.90;;;;;;5040698;28;19951;-89
2022/03/07 01:08:26;;;;;;;;;;;4.10;99.90;;;;;;5039869;28;19976;-88
2022/03/07 01:10:52;;;;;;;;;;;4.10;99.90;;;;;;5041557;28;19921;-89
2022/03/07 01:13:18;;;;;;;;;;;4.10;99.90;;;;;;5040949;28;20236;-89
2022/03/07 01:15:44;;;;;;;;;;;4.10;99.90;;;;;;5072695;28;19912;-89
2022/03/07 01:18:10;;;;;;;;;;;4.00;99.90;;;;;;5041068;28;20143;-90
2022/03/07 01:20:35;;;;;;;;;;;4.00;99.90;;;;;;5041017;28;19956;-89
2022/03/07 01:23:01;;;;;;;;;;;4.00;99.90;;;;;;5041047;28;20196;-89
2022/03/07 01:25:27;;;;;;;;;;;3.90;99.90;;;;;;5041398;28;20129;-89
2022/03/07 01:27:52;;;;;;;;;;;3.80;99.90;;;;;;5041436;28;20078;-89
2022/03/07 01:30:18;;;;;;;;;;;3.70;99.90;;;;;;5041067;28;20047;-89
2022/03/07 01:32:43;;;;;;;;;;;3.70;99.90;;;;;;5041037;28;19905;-89
2022/03/07 01:35:09;;;;;;;;;;;3.60;99.90;;;;;;5039297;28;19909;-89
2022/03/07 01:37:35;;;;;;;;;;;3.50;99.90;;;;;;5040425;28;19905;-89
2022/03/07 01:40:01;;;;;;;;;;;3.50;99.90;;;;;;5040992;28;20140;-89
2022/03/07 01:42:26;;;;;;;;;;;3.50;99.90;;;;;;5041472;28;19936;-89
2022/03/07 01:44:52;;;;;;;;;;;3.40;99.90;;;;;;5032444;28;19921;-89
2022/03/07 01:47:17;;;;;;;;;;;3.30;99.90;;;;;;5025131;28;20097;-89
2022/03/07 01:49:43;;;;;;;;;;;3.30;99.90;;;;;;5026065;28;20188;-89
2022/03/07 01:52:09;;;;;;;;;;;3.30;99.90;;;;;;5025931;28;19906;-89
2022/03/07 01:54:34;;;;;;;;;;;3.40;99.90;;;;;;5025185;28;20346;-89
2022/03/07 01:57:00;;;;;;;;;;;3.30;99.90;;;;;;5025530;28;19980;-89
2022/03/07 01:59:27;;;;;;;;;;;3.30;99.90;;;;;;5024196;28;19944;-89
2022/03/07 02:01:53;;;;;;;;;;;3.30;99.90;;;;;;5025146;28;20105;-89
2022/03/07 02:04:19;;;;;;;;;;;3.30;99.90;;;;;;5025301;28;20198;-89
2022/03/07 02:06:45;;;;;;;;;;;3.30;99.90;;;;;;5025483;28;19952;-89
2022/03/07 02:09:11;;;;;;;;;;;3.30;99.90;;;;;;5024285;28;19905;-89
2022/03/07 02:11:37;;;;;;;;;;;3.20;99.90;;;;;;5024920;28;19909;-89
2022/03/07 02:14:19;;;;;;;;;;;3.20;99.90;;;;;;5032242;28;20036;-89
2022/03/07 02:16:45;;;;;;;;;;;3.20;99.90;;;;;;5041096;28;19953;-89
2022/03/07 02:19:12;;;;;;;;;;;3.10;99.90;;;;;;5025183;28;20253;-89
2022/03/07 02:21:40;;;;;;;;;;;3.00;99.90;;;;;;5025365;28;19905;-89
2022/03/07 02:24:06;;;;;;;;;;;3.10;99.90;;;;;;5025044;28;19974;-89
2022/03/07 02:26:32;;;;;;;;;;;3.10;99.90;;;;;;5024674;28;19945;-89
2022/03/07 02:28:58;;;;;;;;;;;3.10;99.90;;;;;;5056721;28;20101;-89
2022/03/07 02:31:23;;;;;;;;;;;3.10;99.90;;;;;;5025345;28;19905;-89
2022/03/07 02:33:49;;;;;;;;;;;3.00;99.90;;;;;;5023940;28;20207;-89
2022/03/07 02:36:14;;;;;;;;;;;3.10;99.90;;;;;;5024883;28;19973;-91
2022/03/07 02:38:40;;;;;;;;;;;3.20;99.90;;;;;;5024570;28;19968;-89
2022/03/07 02:41:06;;;;;;;;;;;3.20;99.90;;;;;;5024633;28;19944;-89
2022/03/07 02:43:31;;;;;;;;;;;3.10;99.90;;;;;;5022988;28;19985;-89
2022/03/07 02:45:58;;;;;;;;;;;3.20;99.90;;;;;;5023486;28;20174;-89
2022/03/07 02:48:24;;;;;;;;;;;3.10;99.90;;;;;;5075630;28;19912;-89
2022/03/07 02:50:49;;;;;;;;;;;3.20;99.90;;;;;;5042764;28;19905;-89
2022/03/07 02:53:15;;;;;;;;;;;3.20;99.90;;;;;;5042287;28;20267;-89
2022/03/07 02:55:41;;;;;;;;;;;3.10;99.90;;;;;;5042323;28;19905;-89
2022/03/07 02:58:06;;;;;;;;;;;3.10;99.90;;;;;;5042936;28;20151;-89
2022/03/07 03:00:32;;;;;;;;;;;3.10;99.90;;;;;;5075355;28;19940;-89
2022/03/07 03:02:57;;;;;;;;;;;3.10;99.90;;;;;;5042423;28;19912;-89
2022/03/07 03:05:23;;;;;;;;;;;3.00;99.90;;;;;;5042663;28;19947;-89
2022/03/07 03:07:51;;;;;;;;;;;3.00;99.90;;;;;;5074825;28;19920;-88
2022/03/07 03:10:16;;;;;;;;;;;2.90;99.90;;;;;;5075222;28;19911;-91
2022/03/07 03:12:42;;;;;;;;;;;2.90;99.90;;;;;;5041293;28;19944;-89
2022/03/07 03:15:08;;;;;;;;;;;2.90;99.90;;;;;;5042952;28;20104;-89
2022/03/07 03:17:34;;;;;;;;;;;2.90;99.90;;;;;;5074584;28;19955;-90
2022/03/07 03:19:59;;;;;;;;;;;2.90;99.90;;;;;;5042253;28;20067;-88
2022/03/07 03:22:25;;;;;;;;;;;2.90;99.90;;;;;;5043303;28;19963;-89
2022/03/07 03:24:50;;;;;;;;;;;2.80;99.90;;;;;;5042872;28;19943;-89
2022/03/07 03:27:16;;;;;;;;;;;2.80;99.90;;;;;;5075192;28;19913;-89
2022/03/07 03:29:41;;;;;;;;;;;2.70;99.90;;;;;;5041400;28;19912;-89
2022/03/07 03:32:07;;;;;;;;;;;2.60;99.90;;;;;;5042845;28;19905;-89
2022/03/07 03:34:33;;;;;;;;;;;2.60;99.90;;;;;;5042192;28;19913;-89
2022/03/07 03:36:58;;;;;;;;;;;2.50;99.90;;;;;;5041178;28;19995;-89
2022/03/07 03:39:24;;;;;;;;;;;2.60;99.90;;;;;;5042968;28;19905;-89
2022/03/07 03:41:50;;;;;;;;;;;2.60;99.90;;;;;;5015540;28;19949;-90
2022/03/07 03:44:15;;;;;;;;;;;2.60;99.90;;;;;;5038545;28;19924;-89
2022/03/07 03:46:41;;;;;;;;;;;2.60;99.90;;;;;;5022878;28;19913;-89
2022/03/07 03:49:06;;;;;;;;;;;2.50;99.90;;;;;;5021836;28;19913;-89
2022/03/07 03:51:34;;;;;;;;;;;2.50;99.90;;;;;;5023192;28;19905;-89
2022/03/07 03:54:00;;;;;;;;;;;2.50;99.90;;;;;;5054933;28;19924;-88
2022/03/07 03:56:26;;;;;;;;;;;2.40;99.90;;;;;;5022587;28;19912;-89
2022/03/07 03:58:51;;;;;;;;;;;2.40;99.90;;;;;;5059488;28;19905;-89
2022/03/07 04:01:17;;;;;;;;;;;2.40;99.90;;;;;;5042103;28;19976;-89
2022/03/07 04:03:43;;;;;;;;;;;2.30;99.90;;;;;;5041682;28;20132;-89
2022/03/07 04:06:08;;;;;;;;;;;2.30;99.90;;;;;;5041870;28;19909;-88
2022/03/07 04:08:37;;;;;;;;;;;2.30;99.90;;;;;;5040823;28;19909;-89
2022/03/07 04:11:03;;;;;;;;;;;2.30;99.90;;;;;;5073266;28;19905;-89
2022/03/07 04:13:28;;;;;;;;;;;2.30;99.90;;;;;;5042116;28;19916;-89
2022/03/07 04:15:54;;;;;;;;;;;2.20;99.90;;;;;;5041877;28;19960;-89
2022/03/07 04:18:19;;;;;;;;;;;2.20;99.90;;;;;;5041909;28;19905;-89
2022/03/07 04:20:45;;;;;;;;;;;2.20;99.90;;;;;;5073623;28;19913;-88
2022/03/07 04:23:11;;;;;;;;;;;2.20;99.90;;;;;;5041202;28;19905;-88
2022/03/07 04:25:36;;;;;;;;;;;2.10;99.90;;;;;;5041765;28;19912;-89
2022/03/07 04:28:02;;;;;;;;;;;2.10;99.90;;;;;;5041257;28;19905;-89
2022/03/07 04:30:28;;;;;;;;;;;2.10;99.90;;;;;;5028143;28;19912;-89
2022/03/07 04:32:53;;;;;;;;;;;2.10;99.90;;;;;;5022444;28;19916;-88
2022/03/07 04:35:19;;;;;;;;;;;2.00;99.90;;;;;;5021776;28;19909;-89
2022/03/07 04:37:44;;;;;;;;;;;2.00;99.90;;;;;;5047336;28;19905;-89
2022/03/07 04:40:12;;;;;;;;;;;2.10;99.90;;;;;;5022112;28;19976;-89
2022/03/07 04:42:37;;;;;;;;;;;2.00;99.90;;;;;;5022189;28;19929;-89
2022/03/07 04:45:04;;;;;;;;;;;2.00;99.90;;;;;;5020510;28;19913;-89
2022/03/07 04:47:29;;;;;;;;;;;1.90;99.90;;;;;;5020713;28;19913;-89
2022/03/07 04:49:55;;;;;;;;;;;1.90;99.90;;;;;;5021496;28;20181;-89
2022/03/07 04:52:20;;;;;;;;;;;1.90;99.90;;;;;;5022266;28;19944;-89
2022/03/07 04:54:46;;;;;;;;;;;1.90;99.90;;;;;;5022447;28;19920;-89
2022/03/07 04:57:11;;;;;;;;;;;1.90;99.90;;;;;;5021179;28;20210;-88
2022/03/07 04:59:37;;;;;;;;;;;1.90;99.90;;;;;;5021817;28;20301;-89
2022/03/07 05:02:03;;;;;;;;;;;1.80;99.90;;;;;;5022532;28;20117;-89
2022/03/07 05:04:28;;;;;;;;;;;1.90;99.90;;;;;;5022360;28;19916;-89
2022/03/07 05:06:54;;;;;;;;;;;1.80;99.90;;;;;;5022329;28;19985;-89
2022/03/07 05:09:19;;;;;;;;;;;1.80;99.90;;;;;;5021070;28;19906;-89
2022/03/07 05:11:45;;;;;;;;;;;1.80;99.90;;;;;;5021435;28;19910;-89
2022/03/07 05:14:11;;;;;;;;;;;1.70;99.90;;;;;;5053820;28;19968;-89
2022/03/07 05:16:36;;;;;;;;;;;1.70;99.90;;;;;;5020662;28;20063;-89
2022/03/07 05:19:02;;;;;;;;;;;1.70;99.90;;;;;;5020845;28;19956;-89
2022/03/07 05:21:29;;;;;;;;;;;1.70;99.90;;;;;;5021972;28;19982;-89
2022/03/07 05:23:54;;;;;;;;;;;1.70;99.90;;;;;;5022186;28;19985;-89
2022/03/07 05:26:20;;;;;;;;;;;1.70;99.90;;;;;;5035565;28;20101;-89
2022/03/07 05:28:45;;;;;;;;;;;1.70;99.90;;;;;;5041300;28;19905;-89
2022/03/07 05:31:13;;;;;;;;;;;1.80;99.90;;;;;;5039503;28;19905;-89
2022/03/07 05:33:39;;;;;;;;;;;1.80;99.90;;;;;;5040574;28;19913;-89
2022/03/07 05:36:05;;;;;;;;;;;1.80;99.90;;;;;;5040611;28;19909;-89
2022/03/07 05:38:31;;;;;;;;;;;1.80;99.90;;;;;;5041127;28;19936;-89
2022/03/07 05:40:56;;;;;;;;;;;1.70;99.90;;;;;;5039206;28;20157;-89
2022/03/07 05:43:22;;;;;;;;;;;1.70;99.90;;;;;;5040685;28;19940;-89
2022/03/07 05:45:47;;;;;;;;;;;1.70;99.90;;;;;;5039736;28;20221;-89
2022/03/07 05:48:13;;;;;;;;;;;1.80;99.90;;;;;;5040956;28;19912;-91
2022/03/07 05:50:39;;;;;;;;;;;1.90;99.90;;;;;;5040860;28;20138;-89
2022/03/07 05:53:06;;;;;;;;;;;1.80;99.90;;;;;;5039431;28;19976;-89
2022/03/07 05:55:31;;;;;;;;;;;1.80;99.90;;;;;;5039371;28;19976;-88
2022/03/07 05:58:00;;;;;;;;;;;1.80;99.90;;;;;;5040528;28;20529;-89
2022/03/07 06:00:25;;;;;;;;;;;1.80;99.90;;;;;;5040528;28;19901;-89
2022/03/07 06:02:51;;;;;;;;;;;1.80;99.90;;;;;;5039869;28;19937;-89
2022/03/07 06:05:17;;;;;;;;;;;1.80;99.90;;;;;;5040550;28;19906;-89
2022/03/07 06:07:42;;;;;;;;;;;1.70;99.90;;;;;;5038977;28;19936;-89
2022/03/07 06:10:08;;;;;;;;;;;1.70;99.90;;;;;;5039592;28;19928;-89
2022/03/07 06:12:33;;;;;;;;;;;1.70;99.90;;;;;;5032791;28;19996;-90
2022/03/07 06:15:04;;;;;;;;;;;1.80;99.90;;;;;;5027406;28;19917;-89
2022/03/07 06:17:31;;;;;;;;;;;1.70;99.90;;;;;;5057909;28;20408;-89
2022/03/07 06:19:56;;;;;;;;;;;1.70;99.90;;;;;;5009155;28;20318;-90
2022/03/07 06:22:22;;;;;;;;;;;1.60;99.90;;;;;;5011058;28;19918;-90
2022/03/07 06:24:47;;;;;;;;;;;1.60;99.90;;;;;;5009667;28;20012;-87
2022/03/07 06:27:13;;;;;;;;;;;1.60;99.90;;;;;;5009591;28;20157;-90
2022/03/07 06:29:38;;;;;;;;;;;1.60;99.90;;;;;;5009932;28;19916;-89
2022/03/07 06:32:04;;;;;;;;;;;1.60;99.90;;;;;;5004765;28;20371;-88
2022/03/07 06:34:31;;;;;;;;;;;1.60;99.90;;;;;;5013458;28;20260;-88
2022/03/07 06:36:57;;;;;;;;;;;1.50;99.90;;;;;;5039179;28;20295;-88
2022/03/07 06:39:25;;;;;;;;;;;1.60;99.90;;;;;;5013632;28;19920;-88
2022/03/07 06:41:51;;;;;;;;;;;1.60;99.90;;;;;;5064468;28;19909;-88
2022/03/07 06:44:16;;;;;;;;;;;1.50;99.90;;;;;;5031819;28;19920;-87
2022/03/07 06:46:42;;;;;;;;;;;1.60;99.90;;;;;;5019063;28;19917;-88
2022/03/07 06:49:08;;;;;;;;;;;1.60;99.90;;;;;;5013443;28;20321;-88
2022/03/07 06:51:33;;;;;;;;;;;1.60;99.90;;;;;;5012039;28;20383;-88
2022/03/07 06:53:59;;;;;;;;;;;1.70;99.90;;;;;;5045208;28;19957;-88
2022/03/07 06:56:24;;;;;;;;;;;1.80;99.90;;;;;;5013283;28;19909;-88
2022/03/07 06:58:50;;;;;;;;;;;1.80;99.90;;;;;;5011603;28;19909;-89
2022/03/07 07:01:15;;;;;;;;;;;1.70;99.90;;;;;;5045084;28;20444;-88
2022/03/07 07:03:41;;;;;;;;;;;1.70;99.90;;;;;;5013041;28;20012;-89
2022/03/07 07:06:06;;;;;;;;;;;1.80;99.90;;;;;;5013095;28;20263;-89
2022/03/07 07:08:32;;;;;;;;;;;1.80;99.90;;;;;;5011599;28;19914;-89
2022/03/07 07:10:58;;;;;;;;;;;1.90;99.90;;;;;;5013078;28;19928;-89
2022/03/07 07:13:23;;;;;;;;;;;1.90;99.90;;;;;;5046522;28;19917;-91
2022/03/07 07:15:55;;;;;;;;;;;1.80;99.90;;;;;;5031785;28;19909;-88
2022/03/07 07:18:21;;;;;;;;;;;1.90;99.90;;;;;;5031949;28;19909;-88
2022/03/07 07:20:47;;;;;;;;;;;1.80;99.90;;;;;;5017371;28;19983;-88
2022/03/07 07:23:12;;;;;;;;;;;1.90;99.90;;;;;;5013110;28;20382;-88
2022/03/07 07:25:38;;;;;;;;;;;1.90;99.90;;;;;;5012509;28;19960;-88
2022/03/07 07:28:03;;;;;;;;;;;2.00;99.90;;;;;;5012324;28;19980;-88
2022/03/07 07:30:29;;;;;;;;;;;2.10;99.90;;;;;;5044442;28;19913;-88
2022/03/07 07:32:55;;;;;;;;;;;2.20;99.90;;;;;;5012488;28;19916;-88
2022/03/07 07:35:20;;;;;;;;;;;2.30;99.90;;;;;;5011241;28;19949;-89
2022/03/07 07:37:46;;;;;;;;;;;2.30;99.90;;;;;;5012400;28;19963;-89
2022/03/07 07:40:11;;;;;;;;;;;2.30;99.90;;;;;;5012235;28;20334;-88
2022/03/07 07:42:37;;;;;;;;;;;2.30;99.90;;;;;;5012040;28;19916;-88
2022/03/07 07:45:03;;;;;;;;;;;2.40;99.90;;;;;;5012091;28;20448;-89
2022/03/07 07:47:28;;;;;;;;;;;2.50;99.90;;;;;;5012083;28;19910;-89
2022/03/07 07:49:54;;;;;;;;;;;2.70;99.90;;;;;;5012183;28;20366;-89
2022/03/07 07:52:19;;;;;;;;;;;2.60;99.90;;;;;;5043885;28;20402;-89
2022/03/07 07:54:45;;;;;;;;;;;2.70;99.90;;;;;;5043687;28;19918;-89
2022/03/07 07:57:12;;;;;;;;;;;2.80;99.90;;;;;;5012187;28;19909;-89
2022/03/07 07:59:38;;;;;;;;;;;2.90;99.90;;;;;;5011814;28;20048;-89
2022/03/07 08:02:04;;;;;;;;;;;3.00;99.90;;;;;;5010662;28;19969;-89
2022/03/07 08:04:29;;;;;;;;;;;3.10;99.90;;;;;;5011859;28;20444;-88
2022/03/07 08:06:55;;;;;;;;;;;3.10;99.90;;;;;;5012094;28;20009;-89
2022/03/07 08:09:20;;;;;;;;;;;3.10;99.90;;;;;;5010550;28;20386;-88
2022/03/07 08:11:46;;;;;;;;;;;3.20;99.90;;;;;;5012052;28;19971;-88
2022/03/07 08:14:11;;;;;;;;;;;3.10;99.90;;;;;;5027541;28;19918;-89
2022/03/07 08:16:37;;;;;;;;;;;3.20;99.90;;;;;;5011848;28;20450;-89
2022/03/07 08:19:03;;;;;;;;;;;3.30;99.90;;;;;;5011843;28;20433;-89
2022/03/07 08:21:28;;;;;;;;;;;3.30;99.90;;;;;;5010519;28;19909;-89
2022/03/07 08:23:56;;;;;;;;;;;3.30;99.90;;;;;;5010056;28;20051;-88
2022/03/07 08:26:22;;;;;;;;;;;3.40;99.90;;;;;;5011788;28;19916;-89
2022/03/07 08:28:48;;;;;;;;;;;3.60;99.90;;;;;;5031544;28;19913;-88
2022/03/07 08:31:13;;;;;;;;;;;3.80;99.90;;;;;;5030283;28;20295;-89
2022/03/07 08:33:39;;;;;;;;;;;3.80;99.90;;;;;;5030532;28;19918;-89
2022/03/07 08:36:04;;;;;;;;;;;3.90;99.90;;;;;;5030523;28;19916;-89
2022/03/07 08:38:31;;;;;;;;;;;3.90;99.90;;;;;;5029099;28;20384;-89
2022/03/07 08:40:57;;;;;;;;;;;4.00;99.90;;;;;;5030186;28;19917;-89
2022/03/07 08:43:23;;;;;;;;;;;4.00;99.90;;;;;;5029954;28;20281;-89
2022/03/07 08:45:48;;;;;;;;;;;4.10;99.90;;;;;;5061703;28;19921;-89
2022/03/07 08:48:14;;;;;;;;;;;4.20;99.90;;;;;;5029994;28;19913;-89
2022/03/07 08:50:39;;;;;;;;;;;4.20;99.90;;;;;;5030115;28;19909;-89
2022/03/07 08:53:05;;;;;;;;;;;4.30;99.90;;;;;;5029693;28;19923;-89
2022/03/07 08:55:30;;;;;;;;;;;4.30;99.90;;;;;;5062057;28;19998;-89
2022/03/07 08:57:56;;;;;;;;;;;4.40;99.90;;;;;;5029934;28;19909;-89
2022/03/07 09:00:21;;;;;;;;;;;4.50;99.90;;;;;;5030201;28;19909;-89
2022/03/07 09:02:47;;;;;;;;;;;4.60;99.90;;;;;;5029976;28;19917;-90
2022/03/07 09:05:13;;;;;;;;;;;4.80;99.90;;;;;;5030053;28;20346;-89
2022/03/07 09:07:38;;;;;;;;;;;4.80;99.90;;;;;;5028579;28;19909;-89
2022/03/07 09:10:04;;;;;;;;;;;4.90;99.90;;;;;;5029720;28;19937;-89
2022/03/07 09:12:30;;;;;;;;;;;4.90;99.90;;;;;;5029497;28;19960;-89
2022/03/07 09:14:57;;;;;;;;;;;5.00;99.90;;;;;;5029715;28;19924;-89
2022/03/07 09:17:23;;;;;;;;;;;5.10;99.90;;;;;;5028344;28;19916;-89
2022/03/07 09:19:49;;;;;;;;;;;5.20;99.90;;;;;;5028382;28;19909;-89
2022/03/07 09:22:14;;;;;;;;;;;5.30;99.90;;;;;;5029849;28;20374;-88
2022/03/07 09:24:40;;;;;;;;;;;5.30;99.90;;;;;;5029791;28;20011;-89
2022/03/07 09:27:05;;;;;;;;;;;5.30;99.90;;;;;;5035814;28;19910;-89
2022/03/07 09:29:31;;;;;;;;;;;5.30;99.90;;;;;;5010266;28;19910;-89
2022/03/07 09:31:56;;;;;;;;;;;5.30;99.90;;;;;;5011203;28;19916;-88
2022/03/07 09:34:22;;;;;;;;;;;5.30;99.90;;;;;;5010825;28;19924;-89
2022/03/07 09:36:48;;;;;;;;;;;5.50;99.90;;;;;;5010639;28;19913;-89
2022/03/07 09:39:13;;;;;;;;;;;5.60;99.90;;;;;;5010828;28;19909;-89
2022/03/07 09:41:42;;;;;;;;;;;5.70;99.90;;;;;;5009233;28;19955;-89
2022/03/07 09:44:08;;;;;;;;;;;5.80;99.90;;;;;;5010687;28;19914;-89
2022/03/07 09:46:34;;;;;;;;;;;5.80;99.90;;;;;;5010583;28;19936;-89
2022/03/07 09:49:00;;;;;;;;;;;5.80;99.90;;;;;;5010362;28;19909;-89
2022/03/07 09:51:25;;;;;;;;;;;5.90;99.90;;;;;;5009194;28;19918;-89
2022/03/07 09:53:51;;;;;;;;;;;6.10;99.90;;;;;;5008989;28;19920;-89
2022/03/07 09:56:16;;;;;;;;;;;6.10;99.90;;;;;;5013728;28;19940;-89
2022/03/07 09:58:42;;;;;;;;;;;6.30;99.90;;;;;;5027849;28;20486;-89
2022/03/07 10:01:09;;;;;;;;;;;6.40;99.90;;;;;;5028092;28;20348;-89
2022/03/07 10:03:35;;;;;;;;;;;6.50;99.90;;;;;;5031468;28;19913;-89
2022/03/07 10:06:00;;;;;;;;;;;6.60;99.90;;;;;;5033126;28;19909;-90
2022/03/07 10:08:27;;;;;;;;;;;6.70;99.90;;;;;;5065065;28;19915;-89
2022/03/07 10:10:54;;;;;;;;;;;6.70;99.90;;;;;;5064812;28;19913;-89
2022/03/07 10:13:20;;;;;;;;;;;6.70;99.90;;;;;;5031300;28;20066;-89
2022/03/07 10:15:54;;;;;;;;;;;6.80;99.90;;;;;;5025471;28;19914;-89
2022/03/07 10:18:19;;;;;;;;;;;6.80;99.90;;;;;;5012555;28;20048;-89
2022/03/07 10:20:53;;;;;;;;;;;6.80;99.90;;;;;;5021933;28;20007;-88
2022/03/07 10:23:19;;;;;;;;;;;6.90;99.90;;;;;;5033354;28;19916;-90
2022/03/07 10:25:45;;;;;;;;;;;7.00;99.90;;;;;;5032732;28;19910;-90
2022/03/07 10:28:11;;;;;;;;;;;7.10;99.90;;;;;;5030868;28;20382;-89
2022/03/07 10:30:38;;;;;;;;;;;7.10;99.90;;;;;;5032642;28;20004;-89
2022/03/07 10:33:07;;;;;;;;;;;7.20;99.90;;;;;;5032705;28;19983;-88
2022/03/07 10:35:43;;;;;;;;;;;7.30;99.90;;;;;;5018252;28;19920;-89
2022/03/07 10:38:13;;;;;;;;;;;7.30;99.90;;;;;;5013741;28;19913;-89
2022/03/07 10:40:40;;;;;;;;;;;7.40;99.90;;;;;;5013510;28;20337;-89
2022/03/07 10:43:06;;;;;;;;;;;7.50;99.90;;;;;;5013135;28;20044;-89
2022/03/07 10:45:42;;;;;;;;;;;7.50;99.90;;;;;;5012779;28;20374;-92
2022/03/07 10:48:08;;;;;;;;;;;7.60;99.90;;;;;;5028336;28;20296;-90
2022/03/07 10:50:33;;;;;;;;;;;7.60;99.90;;;;;;5032158;28;19913;-89
2022/03/07 10:53:02;;;;;;;;;;;7.70;99.90;;;;;;5031908;28;20300;-89
2022/03/07 10:55:29;;;;;;;;;;;7.70;99.90;;;;;;5031982;28;19909;-89
2022/03/07 10:58:04;;;;;;;;;;;7.80;99.90;;;;;;5031827;28;19917;-89
2022/03/07 11:00:30;;;;;;;;;;;7.90;99.90;;;;;;5030742;28;19913;-89
2022/03/07 11:02:56;;;;;;;;;;;7.90;99.90;;;;;;5030961;28;19916;-89
2022/03/07 11:05:21;;;;;;;;;;;7.90;99.90;;;;;;5032010;28;19916;-89
2022/03/07 11:07:49;;;;;;;;;;;7.90;99.90;;;;;;5031916;28;19955;-89
2022/03/07 11:10:15;;;;;;;;;;;7.90;99.90;;;;;;5031783;28;19909;-89
2022/03/07 11:12:41;;;;;;;;;;;8.00;99.90;;;;;;5031379;28;19940;-89
2022/03/07 11:15:10;;;;;;;;;;;8.20;99.90;;;;;;5029462;28;19921;-90
2022/03/07 11:17:38;;;;;;;;;;;8.20;99.90;;;;;;5017856;28;19914;-89
2022/03/07 11:20:04;;;;;;;;;;;8.30;99.90;;;;;;5011884;28;19917;-89
2022/03/07 11:22:30;;;;;;;;;;;8.50;99.90;;;;;;5012739;28;20282;-89
2022/03/07 11:24:55;;;;;;;;;;;8.60;99.90;;;;;;5012541;28;19916;-89
2022/03/07 11:27:21;;;;;;;;;;;8.80;99.90;;;;;;5044018;28;19909;-90
2022/03/07 11:29:46;;;;;;;;;;;8.80;99.90;;;;;;5012445;28;19910;-89
2022/03/07 11:32:14;;;;;;;;;;;8.90;99.90;;;;;;5012375;28;19909;-89
2022/03/07 11:34:50;;;;;;;;;;;8.90;99.90;;;;;;5027168;28;19917;-90
2022/03/07 11:37:20;;;;;;;;;;;8.90;99.90;;;;;;5030058;28;19932;-89
2022/03/07 11:39:45;;;;;;;;;;;9.00;99.90;;;;;;5063304;28;19909;-90
2022/03/07 11:42:12;;;;;;;;;;;9.00;99.90;;;;;;5029974;28;19909;-89
2022/03/07 11:44:38;;;;;;;;;;;9.10;99.90;;;;;;5031074;28;19920;-89
2022/03/07 11:47:10;;;;;;;;;;;9.30;99.90;;;;;;5031030;28;19913;-88
2022/03/07 11:49:35;;;;;;;;;;;9.10;99.90;;;;;;5016061;28;19937;-90
2022/03/07 11:52:03;;;;;;;;;;;9.20;99.90;;;;;;5012342;28;20361;-89
2022/03/07 11:54:28;;;;;;;;;;;9.50;99.90;;;;;;5010902;28;19952;-89
2022/03/07 11:57:10;;;;;;;;;;;9.50;99.90;;;;;;5020036;28;19955;-89
2022/03/07 11:59:36;;;;;;;;;;;9.60;99.90;;;;;;5045839;28;19909;-89
2022/03/07 12:02:02;;;;;;;;;;;9.40;99.80;;;;;;5029791;28;20012;-89
2022/03/07 12:04:37;;;;;;;;;;;9.30;99.90;;;;;;5030763;28;19928;-89
2022/03/07 12:07:02;;;;;;;;;;;9.40;99.90;;;;;;5030702;28;20429;-89
2022/03/07 12:09:32;;;;;;;;;;;9.50;99.90;;;;;;5030686;28;20004;-88
2022/03/07 12:12:01;;;;;;;;;;;9.70;99.90;;;;;;5062703;28;20448;-89
2022/03/07 12:14:27;;;;;;;;;;;9.80;98.40;;;;;;5014021;28;19918;-89
2022/03/07 12:16:53;;;;;;;;;;;9.90;98.70;;;;;;5011815;28;19909;-89
2022/03/07 12:19:19;;;;;;;;;;;9.90;98.50;;;;;;5027053;28;19989;-89
2022/03/07 12:21:45;;;;;;;;;;;10.20;98.30;;;;;;5011682;28;20377;-89
2022/03/07 12:24:12;;;;;;;;;;;10.30;98.20;;;;;;5043220;28;19971;-89
2022/03/07 12:26:56;;;;;;;;;;;10.40;97.10;;;;;;5043024;28;19984;-89
2022/03/07 12:29:23;;;;;;;;;;;10.40;97.80;;;;;;5009532;28;19956;-89
2022/03/07 12:31:50;;;;;;;;;;;10.50;98.10;;;;;;5011427;28;19997;-89
2022/03/07 12:34:22;;;;;;;;;;;10.60;98.20;;;;;;5015144;28;19918;-89
2022/03/07 12:37:20;;;;;;;;;;;10.70;98.30;;;;;;5030410;28;19959;-89
2022/03/07 12:39:57;;;;;;;;;;;10.70;98.20;;;;;;5030217;28;19984;-89
2022/03/07 12:42:24;;;;;;;;;;;10.80;97.40;;;;;;5029975;28;19999;-89
2022/03/07 12:44:50;;;;;;;;;;;11.10;97.10;;;;;;5029884;28;19961;-89
2022/03/07 12:47:17;;;;;;;;;;;11.20;96.60;;;;;;5028821;28;20010;-88
2022/03/07 12:49:47;;;;;;;;;;;11.30;95.90;;;;;;5028669;28;19913;-88
2022/03/07 12:52:20;;;;;;;;;;;11.30;95.90;;;;;;5029840;28;19909;-89
2022/03/07 12:54:46;;;;;;;;;;;11.50;95.30;;;;;;5029877;28;20034;-89
2022/03/07 12:57:15;;;;;;;;;;;11.40;94.30;;;;;;5029070;28;20454;-89
2022/03/07 12:59:40;;;;;;;;;;;11.50;94.60;;;;;;5029961;28;19944;-89
2022/03/07 13:02:06;;;;;;;;;;;11.50;94.90;;;;;;5029883;28;20006;-89
2022/03/07 13:04:32;;;;;;;;;;;11.60;94.50;;;;;;5029589;28;19964;-89
2022/03/07 13:06:58;;;;;;;;;;;11.80;94.90;;;;;;5029703;28;19962;-89
2022/03/07 13:09:27;;;;;;;;;;;11.80;94.80;;;;;;5030151;28;19909;-89
2022/03/07 13:11:54;;;;;;;;;;;11.90;93.50;;;;;;5029547;28;20438;-89
2022/03/07 13:14:21;;;;;;;;;;;12.00;94.00;;;;;;5029229;28;19917;-89
2022/03/07 13:16:47;;;;;;;;;;;12.10;94.40;;;;;;5029603;28;19913;-89
2022/03/07 13:19:13;;;;;;;;;;;12.30;93.90;;;;;;5029796;28;20384;-88
2022/03/07 13:21:40;;;;;;;;;;;12.40;94.20;;;;;;5029705;28;20005;-89
2022/03/07 13:24:06;;;;;;;;;;;12.40;93.40;;;;;;5029617;28;20352;-89
2022/03/07 13:26:32;;;;;;;;;;;12.40;93.30;;;;;;5028486;28;19963;-89
2022/03/07 13:29:15;;;;;;;;;;;12.30;93.30;;;;;;5061022;28;19917;-89
2022/03/07 13:31:44;;;;;;;;;;;12.50;93.40;;;;;;5029450;28;19917;-89
2022/03/07 13:34:10;;;;;;;;;;;12.70;94.10;;;;;;5029302;28;19939;-89
2022/03/07 13:36:40;;;;;;;;;;;12.80;92.80;;;;;;5061383;28;20389;-89
2022/03/07 13:39:15;;;;;;;;;;;12.90;92.50;;;;;;5064943;28;20059;-89
2022/03/07 13:41:48;;;;;;;;;;;13.00;91.60;;;;;;5065461;28;20946;-89
2022/03/07 13:44:14;;;;;;;;;;;12.90;91.80;;;;;;5064925;28;19920;-88
2022/03/07 13:46:50;;;;;;;;;;;13.00;91.90;;;;;;5033386;28;19913;-89
2022/03/07 13:49:15;;;;;;;;;;;13.00;91.60;;;;;;5033211;28;19939;-89
2022/03/07 13:51:41;;;;;;;;;;;13.20;92.50;;;;;;5031929;28;19909;-88
2022/03/07 13:54:06;;;;;;;;;;;13.30;93.60;;;;;;5033102;28;19944;-89
2022/03/07 13:56:32;;;;;;;;;;;13.30;91.20;;;;;;5065120;28;19916;-89
2022/03/07 13:58:57;;;;;;;;;;;13.20;93.20;;;;;;5032927;28;19914;-89
2022/03/07 14:01:28;;;;;;;;;;;13.30;92.90;;;;;;5033304;28;19957;-89
2022/03/07 14:03:54;;;;;;;;;;;13.40;92.20;;;;;;5031732;28;19916;-89
2022/03/07 14:06:19;;;;;;;;;;;13.60;92.70;;;;;;5033162;28;19909;-89
2022/03/07 14:08:45;;;;;;;;;;;13.50;92.40;;;;;;5032746;28;19909;-88
2022/03/07 14:11:13;;;;;;;;;;;13.50;92.70;;;;;;5032893;28;19916;-89
2022/03/07 14:13:43;;;;;;;;;;;13.40;92.90;;;;;;5032475;28;19913;-89
2022/03/07 14:16:09;;;;;;;;;;;13.40;92.70;;;;;;5032756;28;19913;-89
2022/03/07 14:18:34;;;;;;;;;;;13.30;92.20;;;;;;5032784;28;19939;-89
2022/03/07 14:21:00;;;;;;;;;;;13.40;92.30;;;;;;5032730;28;20000;-89
2022/03/07 14:23:25;;;;;;;;;;;13.60;92.00;;;;;;5032899;28;19920;-89